Las Vegas, Nevada
Current Conditions -  °F | °C
As of 3:56 PM on Monday 20 Oct 2014 (Local Time) from KLAS Reporting Station
Scattered Clouds Scattered Clouds  
Wind Chill: 87°   Ceiling: Unl
Heat Index: 87°   Visibility: 10mi
Dew Point: 40°   Wind: 10mph
Humidity: 19%   Direction: 130°SE
Pressure: 29.8"   Gusts: NA
Location:  36.17°N, 115.13°W
Report Text: KLAS 202256Z 13009KT 10SM SCT140 31/04 A2980 RMK AO2 SLP070 T03060044
Loading
Personal Weather Stations






























Interactive Weather Map
Tropical Storm Tracking
New forecast layout! Learn more

10-Day Weather Forecast

Advertisements
Track Severe Weather on mobile